sensor_id;sensor_type;location;lat;lon;timestamp;P1;durP1;ratioP1;P2;durP2;ratioP2
22628;SDS011;11481;53.694;9.910;2023-10-19T00:00:46;13.55;;;7.30;;
22628;SDS011;11481;53.694;9.910;2023-10-19T00:03:18;12.48;;;7.03;;
22628;SDS011;11481;53.694;9.910;2023-10-19T00:05:45;12.30;;;6.68;;
22628;SDS011;11481;53.694;9.910;2023-10-19T00:08:13;11.65;;;7.28;;
22628;SDS011;11481;53.694;9.910;2023-10-19T00:10:40;10.45;;;7.00;;
22628;SDS011;11481;53.694;9.910;2023-10-19T00:13:10;12.48;;;7.55;;
22628;SDS011;11481;53.694;9.910;2023-10-19T00:15:41;12.20;;;6.75;;
22628;SDS011;11481;53.694;9.910;2023-10-19T00:18:15;13.35;;;7.53;;
22628;SDS011;11481;53.694;9.910;2023-10-19T00:20:43;14.82;;;7.47;;
22628;SDS011;11481;53.694;9.910;2023-10-19T00:23:21;13.93;;;7.28;;
22628;SDS011;11481;53.694;9.910;2023-10-19T00:26:06;12.68;;;7.85;;
22628;SDS011;11481;53.694;9.910;2023-10-19T00:28:41;16.25;;;8.02;;
22628;SDS011;11481;53.694;9.910;2023-10-19T00:31:12;13.98;;;7.82;;
22628;SDS011;11481;53.694;9.910;2023-10-19T00:33:39;13.88;;;7.65;;
22628;SDS011;11481;53.694;9.910;2023-10-19T00:36:07;13.77;;;8.35;;
22628;SDS011;11481;53.694;9.910;2023-10-19T00:38:35;12.02;;;7.63;;
22628;SDS011;11481;53.694;9.910;2023-10-19T00:41:02;14.00;;;7.63;;
22628;SDS011;11481;53.694;9.910;2023-10-19T00:43:33;15.90;;;7.97;;
22628;SDS011;11481;53.694;9.910;2023-10-19T00:46:23;11.85;;;7.13;;
22628;SDS011;11481;53.694;9.910;2023-10-19T00:48:58;14.65;;;8.27;;
22628;SDS011;11481;53.694;9.910;2023-10-19T00:54:34;14.80;;;8.60;;
22628;SDS011;11481;53.694;9.910;2023-10-19T00:57:03;15.05;;;8.07;;
22628;SDS011;11481;53.694;9.910;2023-10-19T00:59:40;11.60;;;7.65;;
22628;SDS011;11481;53.694;9.910;2023-10-19T01:02:30;14.70;;;7.68;;
22628;SDS011;11481;53.694;9.910;2023-10-19T01:04:57;13.55;;;7.97;;
22628;SDS011;11481;53.694;9.910;2023-10-19T01:07:33;12.90;;;7.75;;
22628;SDS011;11481;53.694;9.910;2023-10-19T01:10:11;13.57;;;7.68;;
22628;SDS011;11481;53.694;9.910;2023-10-19T01:12:38;14.32;;;7.90;;
22628;SDS011;11481;53.694;9.910;2023-10-19T01:17:40;12.13;;;7.65;;
22628;SDS011;11481;53.694;9.910;2023-10-19T01:20:11;12.63;;;6.80;;
22628;SDS011;11481;53.694;9.910;2023-10-19T01:23:01;15.50;;;8.23;;
22628;SDS011;11481;53.694;9.910;2023-10-19T01:25:43;11.73;;;7.22;;
22628;SDS011;11481;53.694;9.910;2023-10-19T01:28:24;14.27;;;7.28;;
22628;SDS011;11481;53.694;9.910;2023-10-19T01:31:08;11.82;;;6.95;;
22628;SDS011;11481;53.694;9.910;2023-10-19T01:33:49;14.30;;;7.50;;
22628;SDS011;11481;53.694;9.910;2023-10-19T01:36:16;12.93;;;8.00;;
22628;SDS011;11481;53.694;9.910;2023-10-19T01:38:49;14.07;;;8.30;;
22628;SDS011;11481;53.694;9.910;2023-10-19T01:41:20;19.13;;;8.23;;
22628;SDS011;11481;53.694;9.910;2023-10-19T01:43:48;12.63;;;7.65;;
22628;SDS011;11481;53.694;9.910;2023-10-19T01:46:17;13.98;;;7.38;;
22628;SDS011;11481;53.694;9.910;2023-10-19T01:48:52;14.40;;;7.55;;
22628;SDS011;11481;53.694;9.910;2023-10-19T01:51:22;14.98;;;8.40;;
22628;SDS011;11481;53.694;9.910;2023-10-19T01:53:50;14.85;;;8.27;;
22628;SDS011;11481;53.694;9.910;2023-10-19T01:56:17;12.88;;;8.20;;
22628;SDS011;11481;53.694;9.910;2023-10-19T01:58:45;14.50;;;8.07;;
22628;SDS011;11481;53.694;9.910;2023-10-19T02:01:14;15.70;;;8.25;;
22628;SDS011;11481;53.694;9.910;2023-10-19T02:03:55;14.75;;;8.38;;
22628;SDS011;11481;53.694;9.910;2023-10-19T02:06:27;13.55;;;8.00;;
22628;SDS011;11481;53.694;9.910;2023-10-19T02:09:07;14.55;;;8.25;;
22628;SDS011;11481;53.694;9.910;2023-10-19T02:11:44;18.58;;;8.82;;
22628;SDS011;11481;53.694;9.910;2023-10-19T02:14:16;16.58;;;8.88;;
22628;SDS011;11481;53.694;9.910;2023-10-19T02:16:55;15.85;;;8.45;;
22628;SDS011;11481;53.694;9.910;2023-10-19T02:19:23;18.65;;;8.88;;
22628;SDS011;11481;53.694;9.910;2023-10-19T02:21:52;17.80;;;8.43;;
22628;SDS011;11481;53.694;9.910;2023-10-19T02:24:25;13.65;;;8.73;;
22628;SDS011;11481;53.694;9.910;2023-10-19T02:26:53;13.43;;;8.32;;
22628;SDS011;11481;53.694;9.910;2023-10-19T02:29:21;16.02;;;8.70;;
22628;SDS011;11481;53.694;9.910;2023-10-19T02:31:48;16.52;;;8.43;;
22628;SDS011;11481;53.694;9.910;2023-10-19T02:34:16;16.00;;;7.95;;
22628;SDS011;11481;53.694;9.910;2023-10-19T02:36:43;15.00;;;8.95;;
22628;SDS011;11481;53.694;9.910;2023-10-19T02:39:12;15.25;;;8.38;;
22628;SDS011;11481;53.694;9.910;2023-10-19T02:41:41;13.35;;;8.48;;
22628;SDS011;11481;53.694;9.910;2023-10-19T02:44:16;17.92;;;8.93;;
22628;SDS011;11481;53.694;9.910;2023-10-19T02:46:44;20.85;;;9.13;;
22628;SDS011;11481;53.694;9.910;2023-10-19T02:49:12;16.00;;;8.38;;
22628;SDS011;11481;53.694;9.910;2023-10-19T02:51:41;15.88;;;8.63;;
22628;SDS011;11481;53.694;9.910;2023-10-19T02:54:12;16.35;;;8.80;;
22628;SDS011;11481;53.694;9.910;2023-10-19T02:56:47;17.23;;;9.43;;
22628;SDS011;11481;53.694;9.910;2023-10-19T02:59:18;16.27;;;9.13;;
22628;SDS011;11481;53.694;9.910;2023-10-19T03:01:53;15.82;;;9.15;;
22628;SDS011;11481;53.694;9.910;2023-10-19T03:04:28;18.33;;;9.55;;
22628;SDS011;11481;53.694;9.910;2023-10-19T03:06:55;15.90;;;9.05;;
22628;SDS011;11481;53.694;9.910;2023-10-19T03:09:22;14.52;;;8.95;;
22628;SDS011;11481;53.694;9.910;2023-10-19T03:11:54;16.92;;;8.82;;
22628;SDS011;11481;53.694;9.910;2023-10-19T03:14:26;17.85;;;9.63;;
22628;SDS011;11481;53.694;9.910;2023-10-19T03:16:53;17.98;;;8.88;;
22628;SDS011;11481;53.694;9.910;2023-10-19T03:19:23;14.88;;;9.20;;
22628;SDS011;11481;53.694;9.910;2023-10-19T03:21:53;17.38;;;9.25;;
22628;SDS011;11481;53.694;9.910;2023-10-19T03:24:22;19.17;;;9.27;;
22628;SDS011;11481;53.694;9.910;2023-10-19T03:26:50;16.77;;;9.88;;
22628;SDS011;11481;53.694;9.910;2023-10-19T03:29:17;16.75;;;8.60;;
22628;SDS011;11481;53.694;9.910;2023-10-19T03:31:57;16.50;;;9.23;;
22628;SDS011;11481;53.694;9.910;2023-10-19T03:34:25;16.98;;;8.95;;
22628;SDS011;11481;53.694;9.910;2023-10-19T03:36:52;16.23;;;8.57;;
22628;SDS011;11481;53.694;9.910;2023-10-19T03:39:18;15.00;;;8.35;;
22628;SDS011;11481;53.694;9.910;2023-10-19T03:41:47;14.40;;;9.02;;
22628;SDS011;11481;53.694;9.910;2023-10-19T03:44:16;15.57;;;9.38;;
22628;SDS011;11481;53.694;9.910;2023-10-19T03:46:50;15.60;;;8.95;;
22628;SDS011;11481;53.694;9.910;2023-10-19T03:49:30;13.90;;;8.57;;
22628;SDS011;11481;53.694;9.910;2023-10-19T03:52:02;16.45;;;8.75;;
22628;SDS011;11481;53.694;9.910;2023-10-19T03:54:35;16.52;;;8.25;;
22628;SDS011;11481;53.694;9.910;2023-10-19T03:57:06;16.55;;;8.93;;
22628;SDS011;11481;53.694;9.910;2023-10-19T03:59:51;18.80;;;8.88;;
22628;SDS011;11481;53.694;9.910;2023-10-19T04:02:24;17.38;;;9.60;;
22628;SDS011;11481;53.694;9.910;2023-10-19T04:04:53;16.48;;;8.27;;
22628;SDS011;11481;53.694;9.910;2023-10-19T04:07:22;19.05;;;9.40;;
22628;SDS011;11481;53.694;9.910;2023-10-19T04:09:53;20.08;;;9.75;;
22628;SDS011;11481;53.694;9.910;2023-10-19T04:12:30;17.90;;;8.80;;
22628;SDS011;11481;53.694;9.910;2023-10-19T04:14:58;17.67;;;9.23;;
22628;SDS011;11481;53.694;9.910;2023-10-19T04:17:51;17.05;;;9.13;;
22628;SDS011;11481;53.694;9.910;2023-10-19T04:20:19;15.70;;;9.80;;
22628;SDS011;11481;53.694;9.910;2023-10-19T04:22:49;17.23;;;9.43;;
22628;SDS011;11481;53.694;9.910;2023-10-19T04:25:17;17.65;;;9.32;;
22628;SDS011;11481;53.694;9.910;2023-10-19T04:27:52;18.90;;;9.60;;
22628;SDS011;11481;53.694;9.910;2023-10-19T04:30:19;18.65;;;9.40;;
22628;SDS011;11481;53.694;9.910;2023-10-19T04:32:49;17.00;;;9.85;;
22628;SDS011;11481;53.694;9.910;2023-10-19T04:35:17;18.77;;;10.38;;
22628;SDS011;11481;53.694;9.910;2023-10-19T04:37:50;16.83;;;9.80;;
22628;SDS011;11481;53.694;9.910;2023-10-19T04:40:19;15.35;;;9.60;;
22628;SDS011;11481;53.694;9.910;2023-10-19T04:42:47;17.55;;;9.50;;
22628;SDS011;11481;53.694;9.910;2023-10-19T04:45:15;15.95;;;9.30;;
22628;SDS011;11481;53.694;9.910;2023-10-19T04:47:42;20.50;;;10.75;;
22628;SDS011;11481;53.694;9.910;2023-10-19T04:50:09;19.67;;;10.40;;
22628;SDS011;11481;53.694;9.910;2023-10-19T04:52:36;21.02;;;10.35;;
22628;SDS011;11481;53.694;9.910;2023-10-19T04:55:04;18.92;;;9.85;;
22628;SDS011;11481;53.694;9.910;2023-10-19T04:57:31;15.35;;;9.05;;
22628;SDS011;11481;53.694;9.910;2023-10-19T04:59:58;19.75;;;10.45;;
22628;SDS011;11481;53.694;9.910;2023-10-19T05:02:27;16.73;;;10.45;;
22628;SDS011;11481;53.694;9.910;2023-10-19T05:04:54;15.65;;;9.60;;
22628;SDS011;11481;53.694;9.910;2023-10-19T05:07:21;17.45;;;9.90;;
22628;SDS011;11481;53.694;9.910;2023-10-19T05:09:47;20.50;;;10.63;;
22628;SDS011;11481;53.694;9.910;2023-10-19T05:12:14;22.15;;;11.13;;
22628;SDS011;11481;53.694;9.910;2023-10-19T05:14:41;19.58;;;10.32;;
22628;SDS011;11481;53.694;9.910;2023-10-19T05:17:09;17.60;;;10.23;;
22628;SDS011;11481;53.694;9.910;2023-10-19T05:19:36;18.02;;;10.95;;
22628;SDS011;11481;53.694;9.910;2023-10-19T05:22:05;21.58;;;10.95;;
22628;SDS011;11481;53.694;9.910;2023-10-19T05:24:34;18.85;;;10.35;;
22628;SDS011;11481;53.694;9.910;2023-10-19T05:27:01;19.13;;;10.05;;
22628;SDS011;11481;53.694;9.910;2023-10-19T05:29:30;16.13;;;10.63;;
22628;SDS011;11481;53.694;9.910;2023-10-19T05:31:59;15.73;;;10.60;;
22628;SDS011;11481;53.694;9.910;2023-10-19T05:34:27;22.08;;;11.02;;
22628;SDS011;11481;53.694;9.910;2023-10-19T05:36:55;15.52;;;10.35;;
22628;SDS011;11481;53.694;9.910;2023-10-19T05:39:25;20.23;;;11.07;;
22628;SDS011;11481;53.694;9.910;2023-10-19T05:41:54;20.13;;;11.25;;
22628;SDS011;11481;53.694;9.910;2023-10-19T05:44:21;19.70;;;10.82;;
22628;SDS011;11481;53.694;9.910;2023-10-19T05:46:51;21.20;;;11.15;;
22628;SDS011;11481;53.694;9.910;2023-10-19T05:49:17;19.83;;;10.70;;
22628;SDS011;11481;53.694;9.910;2023-10-19T05:51:44;19.08;;;10.55;;
22628;SDS011;11481;53.694;9.910;2023-10-19T05:54:11;19.30;;;10.60;;
22628;SDS011;11481;53.694;9.910;2023-10-19T05:56:38;19.17;;;11.13;;
22628;SDS011;11481;53.694;9.910;2023-10-19T05:59:05;19.70;;;10.90;;
22628;SDS011;11481;53.694;9.910;2023-10-19T06:01:32;19.52;;;10.73;;
22628;SDS011;11481;53.694;9.910;2023-10-19T06:03:59;18.63;;;11.55;;
22628;SDS011;11481;53.694;9.910;2023-10-19T06:06:26;22.95;;;11.40;;
22628;SDS011;11481;53.694;9.910;2023-10-19T06:08:53;22.23;;;11.48;;
22628;SDS011;11481;53.694;9.910;2023-10-19T06:11:20;20.02;;;11.07;;
22628;SDS011;11481;53.694;9.910;2023-10-19T06:13:49;20.63;;;11.55;;
22628;SDS011;11481;53.694;9.910;2023-10-19T06:16:16;22.10;;;11.63;;
22628;SDS011;11481;53.694;9.910;2023-10-19T06:18:43;21.15;;;11.05;;
22628;SDS011;11481;53.694;9.910;2023-10-19T06:21:10;19.92;;;11.48;;
22628;SDS011;11481;53.694;9.910;2023-10-19T06:23:38;21.05;;;11.18;;
22628;SDS011;11481;53.694;9.910;2023-10-19T06:26:08;21.00;;;11.70;;
22628;SDS011;11481;53.694;9.910;2023-10-19T06:28:37;19.50;;;11.20;;
22628;SDS011;11481;53.694;9.910;2023-10-19T06:31:07;26.15;;;12.10;;
22628;SDS011;11481;53.694;9.910;2023-10-19T06:33:35;22.13;;;11.25;;
22628;SDS011;11481;53.694;9.910;2023-10-19T06:36:07;22.23;;;12.18;;
22628;SDS011;11481;53.694;9.910;2023-10-19T06:38:35;19.17;;;10.65;;
22628;SDS011;11481;53.694;9.910;2023-10-19T06:41:09;21.35;;;11.73;;
22628;SDS011;11481;53.694;9.910;2023-10-19T06:43:38;17.98;;;10.98;;
22628;SDS011;11481;53.694;9.910;2023-10-19T06:46:06;22.95;;;11.80;;
22628;SDS011;11481;53.694;9.910;2023-10-19T06:48:34;20.77;;;11.23;;
22628;SDS011;11481;53.694;9.910;2023-10-19T06:51:01;22.55;;;11.27;;
22628;SDS011;11481;53.694;9.910;2023-10-19T06:53:29;18.70;;;11.18;;
22628;SDS011;11481;53.694;9.910;2023-10-19T06:55:57;20.25;;;11.07;;
22628;SDS011;11481;53.694;9.910;2023-10-19T06:58:24;23.38;;;12.25;;
22628;SDS011;11481;53.694;9.910;2023-10-19T07:00:53;20.90;;;11.27;;
22628;SDS011;11481;53.694;9.910;2023-10-19T07:03:23;20.00;;;12.52;;
22628;SDS011;11481;53.694;9.910;2023-10-19T07:05:51;23.63;;;12.25;;
22628;SDS011;11481;53.694;9.910;2023-10-19T07:08:19;18.33;;;11.50;;
22628;SDS011;11481;53.694;9.910;2023-10-19T07:10:47;19.33;;;11.70;;
22628;SDS011;11481;53.694;9.910;2023-10-19T07:13:16;20.67;;;12.05;;
22628;SDS011;11481;53.694;9.910;2023-10-19T07:15:46;24.33;;;11.32;;
22628;SDS011;11481;53.694;9.910;2023-10-19T07:18:13;25.63;;;12.63;;
22628;SDS011;11481;53.694;9.910;2023-10-19T07:20:40;22.67;;;11.95;;
22628;SDS011;11481;53.694;9.910;2023-10-19T07:23:08;18.50;;;11.27;;
22628;SDS011;11481;53.694;9.910;2023-10-19T07:25:46;20.17;;;12.23;;
22628;SDS011;11481;53.694;9.910;2023-10-19T07:28:15;20.25;;;11.73;;
22628;SDS011;11481;53.694;9.910;2023-10-19T07:30:43;33.40;;;12.82;;
22628;SDS011;11481;53.694;9.910;2023-10-19T07:33:11;19.17;;;12.05;;
22628;SDS011;11481;53.694;9.910;2023-10-19T07:35:46;19.55;;;11.73;;
22628;SDS011;11481;53.694;9.910;2023-10-19T07:38:14;19.50;;;11.85;;
22628;SDS011;11481;53.694;9.910;2023-10-19T07:40:41;21.90;;;11.05;;
22628;SDS011;11481;53.694;9.910;2023-10-19T07:43:09;17.48;;;11.57;;
22628;SDS011;11481;53.694;9.910;2023-10-19T07:45:36;22.95;;;11.65;;
22628;SDS011;11481;53.694;9.910;2023-10-19T07:48:03;21.83;;;11.65;;
22628;SDS011;11481;53.694;9.910;2023-10-19T07:50:37;19.80;;;11.80;;
22628;SDS011;11481;53.694;9.910;2023-10-19T07:53:06;19.40;;;11.43;;
22628;SDS011;11481;53.694;9.910;2023-10-19T07:55:33;20.42;;;11.93;;
22628;SDS011;11481;53.694;9.910;2023-10-19T07:58:00;24.98;;;12.45;;
22628;SDS011;11481;53.694;9.910;2023-10-19T08:00:27;20.25;;;11.90;;
22628;SDS011;11481;53.694;9.910;2023-10-19T08:02:57;21.52;;;12.10;;
22628;SDS011;11481;53.694;9.910;2023-10-19T08:05:25;24.05;;;12.00;;
22628;SDS011;11481;53.694;9.910;2023-10-19T08:07:52;23.95;;;12.32;;
22628;SDS011;11481;53.694;9.910;2023-10-19T08:10:20;20.98;;;12.10;;
22628;SDS011;11481;53.694;9.910;2023-10-19T08:12:48;20.55;;;11.77;;
22628;SDS011;11481;53.694;9.910;2023-10-19T08:15:16;25.98;;;12.50;;
22628;SDS011;11481;53.694;9.910;2023-10-19T08:17:47;25.73;;;13.05;;
22628;SDS011;11481;53.694;9.910;2023-10-19T08:20:15;20.30;;;12.43;;
22628;SDS011;11481;53.694;9.910;2023-10-19T08:22:43;21.35;;;12.93;;
22628;SDS011;11481;53.694;9.910;2023-10-19T08:25:13;20.23;;;11.60;;
22628;SDS011;11481;53.694;9.910;2023-10-19T08:27:41;24.52;;;13.45;;
22628;SDS011;11481;53.694;9.910;2023-10-19T08:30:11;21.70;;;12.32;;
22628;SDS011;11481;53.694;9.910;2023-10-19T08:32:46;17.90;;;11.23;;
22628;SDS011;11481;53.694;9.910;2023-10-19T08:35:20;25.75;;;12.88;;
22628;SDS011;11481;53.694;9.910;2023-10-19T08:37:53;22.17;;;12.60;;
22628;SDS011;11481;53.694;9.910;2023-10-19T08:40:21;20.77;;;12.27;;
22628;SDS011;11481;53.694;9.910;2023-10-19T08:42:50;19.10;;;11.85;;
22628;SDS011;11481;53.694;9.910;2023-10-19T08:45:17;17.52;;;12.18;;
22628;SDS011;11481;53.694;9.910;2023-10-19T08:47:47;21.25;;;12.95;;
22628;SDS011;11481;53.694;9.910;2023-10-19T08:50:32;22.02;;;12.43;;
22628;SDS011;11481;53.694;9.910;2023-10-19T08:53:04;21.80;;;13.77;;
22628;SDS011;11481;53.694;9.910;2023-10-19T08:55:34;22.58;;;13.57;;
22628;SDS011;11481;53.694;9.910;2023-10-19T08:58:15;20.20;;;12.82;;
22628;SDS011;11481;53.694;9.910;2023-10-19T09:00:48;24.05;;;13.63;;
22628;SDS011;11481;53.694;9.910;2023-10-19T09:03:23;19.98;;;13.38;;
22628;SDS011;11481;53.694;9.910;2023-10-19T09:05:52;25.05;;;13.52;;
22628;SDS011;11481;53.694;9.910;2023-10-19T09:08:20;21.10;;;13.13;;
22628;SDS011;11481;53.694;9.910;2023-10-19T09:10:49;27.70;;;14.18;;
22628;SDS011;11481;53.694;9.910;2023-10-19T09:13:19;22.08;;;13.50;;
22628;SDS011;11481;53.694;9.910;2023-10-19T09:15:46;24.30;;;13.40;;
22628;SDS011;11481;53.694;9.910;2023-10-19T09:18:16;25.15;;;14.10;;
22628;SDS011;11481;53.694;9.910;2023-10-19T09:20:46;27.75;;;14.80;;
22628;SDS011;11481;53.694;9.910;2023-10-19T09:23:24;24.48;;;13.43;;
22628;SDS011;11481;53.694;9.910;2023-10-19T09:25:55;22.73;;;12.45;;
22628;SDS011;11481;53.694;9.910;2023-10-19T09:28:23;26.80;;;13.98;;
22628;SDS011;11481;53.694;9.910;2023-10-19T09:30:51;22.67;;;13.15;;
22628;SDS011;11481;53.694;9.910;2023-10-19T09:33:18;26.55;;;13.48;;
22628;SDS011;11481;53.694;9.910;2023-10-19T09:35:48;26.30;;;13.43;;
22628;SDS011;11481;53.694;9.910;2023-10-19T09:38:16;25.23;;;13.90;;
22628;SDS011;11481;53.694;9.910;2023-10-19T09:40:52;24.40;;;13.98;;
22628;SDS011;11481;53.694;9.910;2023-10-19T09:43:22;26.27;;;15.07;;
22628;SDS011;11481;53.694;9.910;2023-10-19T09:46:08;24.60;;;14.27;;
22628;SDS011;11481;53.694;9.910;2023-10-19T09:48:41;29.65;;;14.95;;
22628;SDS011;11481;53.694;9.910;2023-10-19T09:51:09;27.00;;;14.25;;
22628;SDS011;11481;53.694;9.910;2023-10-19T09:53:43;27.02;;;14.48;;
22628;SDS011;11481;53.694;9.910;2023-10-19T09:56:47;24.27;;;13.93;;
22628;SDS011;11481;53.694;9.910;2023-10-19T09:59:25;22.05;;;13.32;;
22628;SDS011;11481;53.694;9.910;2023-10-19T10:04:52;24.33;;;13.52;;
22628;SDS011;11481;53.694;9.910;2023-10-19T10:07:18;27.02;;;13.38;;
22628;SDS011;11481;53.694;9.910;2023-10-19T10:10:06;20.33;;;12.57;;
22628;SDS011;11481;53.694;9.910;2023-10-19T10:12:33;21.50;;;13.57;;
22628;SDS011;11481;53.694;9.910;2023-10-19T10:15:02;21.35;;;12.95;;
22628;SDS011;11481;53.694;9.910;2023-10-19T10:17:34;28.10;;;13.65;;
22628;SDS011;11481;53.694;9.910;2023-10-19T10:22:39;24.45;;;12.95;;
22628;SDS011;11481;53.694;9.910;2023-10-19T10:25:07;24.45;;;13.82;;
22628;SDS011;11481;53.694;9.910;2023-10-19T10:27:51;22.50;;;12.60;;
22628;SDS011;11481;53.694;9.910;2023-10-19T10:30:18;22.42;;;13.73;;
22628;SDS011;11481;53.694;9.910;2023-10-19T10:32:49;25.27;;;13.63;;
22628;SDS011;11481;53.694;9.910;2023-10-19T10:38:05;22.40;;;13.18;;
22628;SDS011;11481;53.694;9.910;2023-10-19T10:40:49;29.30;;;13.52;;
22628;SDS011;11481;53.694;9.910;2023-10-19T10:43:17;22.23;;;11.98;;
22628;SDS011;11481;53.694;9.910;2023-10-19T10:45:45;21.15;;;13.23;;
22628;SDS011;11481;53.694;9.910;2023-10-19T10:48:15;22.98;;;13.80;;
22628;SDS011;11481;53.694;9.910;2023-10-19T10:50:48;19.70;;;13.00;;
22628;SDS011;11481;53.694;9.910;2023-10-19T10:53:15;21.73;;;13.45;;
22628;SDS011;11481;53.694;9.910;2023-10-19T10:55:42;23.27;;;12.93;;
22628;SDS011;11481;53.694;9.910;2023-10-19T10:58:09;22.65;;;12.05;;
22628;SDS011;11481;53.694;9.910;2023-10-19T11:00:43;19.85;;;12.55;;
22628;SDS011;11481;53.694;9.910;2023-10-19T11:03:13;21.25;;;13.30;;
22628;SDS011;11481;53.694;9.910;2023-10-19T11:05:41;19.42;;;12.80;;
22628;SDS011;11481;53.694;9.910;2023-10-19T11:08:12;22.65;;;13.52;;
22628;SDS011;11481;53.694;9.910;2023-10-19T11:10:41;22.80;;;13.60;;
22628;SDS011;11481;53.694;9.910;2023-10-19T11:13:09;21.08;;;12.88;;
22628;SDS011;11481;53.694;9.910;2023-10-19T11:15:37;22.08;;;13.05;;
22628;SDS011;11481;53.694;9.910;2023-10-19T11:18:05;22.42;;;13.27;;
22628;SDS011;11481;53.694;9.910;2023-10-19T11:20:35;23.10;;;13.18;;
22628;SDS011;11481;53.694;9.910;2023-10-19T11:23:01;21.33;;;13.30;;
22628;SDS011;11481;53.694;9.910;2023-10-19T11:25:30;19.38;;;12.07;;
22628;SDS011;11481;53.694;9.910;2023-10-19T11:27:59;24.00;;;13.70;;
22628;SDS011;11481;53.694;9.910;2023-10-19T11:30:27;22.67;;;12.70;;
22628;SDS011;11481;53.694;9.910;2023-10-19T11:32:58;21.70;;;12.50;;
22628;SDS011;11481;53.694;9.910;2023-10-19T11:35:29;25.58;;;13.52;;
22628;SDS011;11481;53.694;9.910;2023-10-19T11:37:59;17.90;;;12.68;;
22628;SDS011;11481;53.694;9.910;2023-10-19T11:40:28;21.60;;;12.50;;
22628;SDS011;11481;53.694;9.910;2023-10-19T11:42:55;20.02;;;12.15;;
22628;SDS011;11481;53.694;9.910;2023-10-19T11:45:27;16.42;;;11.07;;
22628;SDS011;11481;53.694;9.910;2023-10-19T11:47:55;20.27;;;12.38;;
22628;SDS011;11481;53.694;9.910;2023-10-19T11:50:23;22.58;;;12.77;;
22628;SDS011;11481;53.694;9.910;2023-10-19T11:52:50;22.85;;;12.98;;
22628;SDS011;11481;53.694;9.910;2023-10-19T11:55:19;21.50;;;12.93;;
22628;SDS011;11481;53.694;9.910;2023-10-19T11:57:47;20.60;;;12.50;;
22628;SDS011;11481;53.694;9.910;2023-10-19T12:00:14;21.80;;;12.13;;
22628;SDS011;11481;53.694;9.910;2023-10-19T12:02:48;24.13;;;12.07;;
22628;SDS011;11481;53.694;9.910;2023-10-19T12:05:15;23.80;;;13.88;;
22628;SDS011;11481;53.694;9.910;2023-10-19T12:07:42;20.92;;;12.02;;
22628;SDS011;11481;53.694;9.910;2023-10-19T12:10:11;21.05;;;12.75;;
22628;SDS011;11481;53.694;9.910;2023-10-19T12:12:38;20.10;;;12.73;;
22628;SDS011;11481;53.694;9.910;2023-10-19T12:15:23;18.48;;;11.93;;
22628;SDS011;11481;53.694;9.910;2023-10-19T12:17:51;20.50;;;12.20;;
22628;SDS011;11481;53.694;9.910;2023-10-19T12:20:19;20.05;;;11.85;;
22628;SDS011;11481;53.694;9.910;2023-10-19T12:22:48;19.05;;;11.65;;
22628;SDS011;11481;53.694;9.910;2023-10-19T12:25:18;18.65;;;11.15;;
22628;SDS011;11481;53.694;9.910;2023-10-19T12:28:18;25.73;;;13.23;;
22628;SDS011;11481;53.694;9.910;2023-10-19T12:30:45;19.63;;;12.45;;
22628;SDS011;11481;53.694;9.910;2023-10-19T12:33:12;22.30;;;13.23;;
22628;SDS011;11481;53.694;9.910;2023-10-19T12:35:42;18.50;;;11.48;;
22628;SDS011;11481;53.694;9.910;2023-10-19T12:38:19;23.20;;;13.57;;
22628;SDS011;11481;53.694;9.910;2023-10-19T12:40:47;18.88;;;12.80;;
22628;SDS011;11481;53.694;9.910;2023-10-19T12:43:15;19.20;;;12.65;;
22628;SDS011;11481;53.694;9.910;2023-10-19T12:45:42;22.10;;;13.02;;
22628;SDS011;11481;53.694;9.910;2023-10-19T12:48:10;20.23;;;12.93;;
22628;SDS011;11481;53.694;9.910;2023-10-19T12:50:37;23.30;;;13.43;;
22628;SDS011;11481;53.694;9.910;2023-10-19T12:53:05;26.45;;;13.77;;
22628;SDS011;11481;53.694;9.910;2023-10-19T12:55:32;22.75;;;14.27;;
22628;SDS011;11481;53.694;9.910;2023-10-19T12:58:00;22.08;;;13.07;;
22628;SDS011;11481;53.694;9.910;2023-10-19T13:00:33;21.85;;;14.38;;
22628;SDS011;11481;53.694;9.910;2023-10-19T13:03:07;23.05;;;13.90;;
22628;SDS011;11481;53.694;9.910;2023-10-19T13:05:38;23.80;;;14.07;;
22628;SDS011;11481;53.694;9.910;2023-10-19T13:08:06;21.02;;;13.43;;
22628;SDS011;11481;53.694;9.910;2023-10-19T13:10:34;25.20;;;13.35;;
22628;SDS011;11481;53.694;9.910;2023-10-19T13:13:07;22.88;;;13.23;;
22628;SDS011;11481;53.694;9.910;2023-10-19T13:15:38;22.27;;;13.85;;
22628;SDS011;11481;53.694;9.910;2023-10-19T13:18:07;25.15;;;13.85;;
22628;SDS011;11481;53.694;9.910;2023-10-19T13:20:39;24.00;;;13.82;;
22628;SDS011;11481;53.694;9.910;2023-10-19T13:23:10;24.13;;;14.02;;
22628;SDS011;11481;53.694;9.910;2023-10-19T13:25:43;22.65;;;12.50;;
22628;SDS011;11481;53.694;9.910;2023-10-19T13:28:14;22.52;;;13.05;;
22628;SDS011;11481;53.694;9.910;2023-10-19T13:30:47;21.33;;;13.38;;
22628;SDS011;11481;53.694;9.910;2023-10-19T13:33:15;19.35;;;12.52;;
22628;SDS011;11481;53.694;9.910;2023-10-19T13:35:44;24.40;;;14.32;;
22628;SDS011;11481;53.694;9.910;2023-10-19T13:38:11;22.85;;;13.20;;
22628;SDS011;11481;53.694;9.910;2023-10-19T13:40:40;20.63;;;12.90;;
22628;SDS011;11481;53.694;9.910;2023-10-19T13:43:09;21.67;;;12.63;;
22628;SDS011;11481;53.694;9.910;2023-10-19T13:45:40;19.83;;;12.10;;
22628;SDS011;11481;53.694;9.910;2023-10-19T13:48:09;23.77;;;13.13;;
22628;SDS011;11481;53.694;9.910;2023-10-19T13:50:44;23.10;;;13.50;;
22628;SDS011;11481;53.694;9.910;2023-10-19T13:53:14;26.15;;;13.25;;
22628;SDS011;11481;53.694;9.910;2023-10-19T13:55:42;24.55;;;13.77;;
22628;SDS011;11481;53.694;9.910;2023-10-19T13:58:09;19.60;;;12.50;;
22628;SDS011;11481;53.694;9.910;2023-10-19T14:00:37;24.75;;;13.80;;
22628;SDS011;11481;53.694;9.910;2023-10-19T14:03:07;17.25;;;12.63;;
22628;SDS011;11481;53.694;9.910;2023-10-19T14:05:36;22.98;;;12.93;;
22628;SDS011;11481;53.694;9.910;2023-10-19T14:08:04;24.10;;;13.07;;
22628;SDS011;11481;53.694;9.910;2023-10-19T14:10:33;25.13;;;13.45;;
22628;SDS011;11481;53.694;9.910;2023-10-19T14:13:01;22.40;;;12.70;;
22628;SDS011;11481;53.694;9.910;2023-10-19T14:15:28;25.15;;;13.00;;
22628;SDS011;11481;53.694;9.910;2023-10-19T14:17:55;23.10;;;13.10;;
22628;SDS011;11481;53.694;9.910;2023-10-19T14:20:24;20.95;;;13.23;;
22628;SDS011;11481;53.694;9.910;2023-10-19T14:22:51;24.65;;;13.00;;
22628;SDS011;11481;53.694;9.910;2023-10-19T14:25:24;23.10;;;13.90;;
22628;SDS011;11481;53.694;9.910;2023-10-19T14:27:52;22.95;;;12.30;;
22628;SDS011;11481;53.694;9.910;2023-10-19T14:30:25;20.35;;;12.25;;
22628;SDS011;11481;53.694;9.910;2023-10-19T14:32:54;23.05;;;12.55;;
22628;SDS011;11481;53.694;9.910;2023-10-19T14:35:22;21.02;;;13.30;;
22628;SDS011;11481;53.694;9.910;2023-10-19T14:37:52;19.48;;;13.10;;
22628;SDS011;11481;53.694;9.910;2023-10-19T14:40:22;20.98;;;12.93;;
22628;SDS011;11481;53.694;9.910;2023-10-19T14:42:51;23.73;;;13.73;;
22628;SDS011;11481;53.694;9.910;2023-10-19T14:45:23;21.40;;;12.40;;
22628;SDS011;11481;53.694;9.910;2023-10-19T14:47:55;25.17;;;12.95;;
22628;SDS011;11481;53.694;9.910;2023-10-19T14:50:29;21.80;;;12.77;;
22628;SDS011;11481;53.694;9.910;2023-10-19T14:52:57;25.85;;;13.32;;
22628;SDS011;11481;53.694;9.910;2023-10-19T14:55:24;22.33;;;12.98;;
22628;SDS011;11481;53.694;9.910;2023-10-19T14:57:52;24.00;;;13.85;;